createdAt,value
2022-09-26T00:01:38.503Z,97231.36
2022-09-26T00:04:23.053Z,97225.91
2022-09-26T00:06:53.926Z,97213.73
2022-09-26T00:09:23.708Z,97210.10
2022-09-26T00:11:51.772Z,97217.20
2022-09-26T00:14:24.048Z,97221.17
2022-09-26T00:16:52.348Z,97224.09
2022-09-26T00:19:21.437Z,97225.55
2022-09-26T00:21:49.409Z,97229.44
2022-09-26T00:24:17.360Z,97228.77
2022-09-26T00:26:45.314Z,97221.34
2022-09-26T00:29:13.914Z,97217.54
2022-09-26T00:31:46.075Z,97211.27
2022-09-26T00:34:17.406Z,97211.48
2022-09-26T00:36:45.515Z,97217.67
2022-09-26T00:39:15.465Z,97221.63
2022-09-26T00:41:44.354Z,97217.66
2022-09-26T00:44:41.547Z,97211.85
2022-09-26T00:47:36.780Z,97210.70
2022-09-26T00:50:13.669Z,97209.71
2022-09-26T00:52:51.922Z,97211.44
2022-09-26T00:55:24.162Z,97215.38
2022-09-26T00:58:24.915Z,97218.32
2022-09-26T01:00:53.422Z,97217.59
2022-09-26T01:03:24.114Z,97213.33
2022-09-26T01:05:52.090Z,97211.13
2022-09-26T01:08:25.651Z,97211.39
2022-09-26T01:10:53.754Z,97206.67
2022-09-26T01:13:22.274Z,97213.27
2022-09-26T01:15:50.261Z,97212.81
2022-09-26T01:18:18.798Z,97212.09
2022-09-26T01:20:56.004Z,97212.42
2022-09-26T01:23:55.535Z,97213.90
2022-09-26T01:26:30.652Z,97210.05
2022-09-26T01:29:36.961Z,97209.02
2022-09-26T01:32:45.940Z,97210.81
2022-09-26T01:35:51.540Z,97208.98
2022-09-26T01:38:56.434Z,97199.19
2022-09-26T01:41:58.345Z,97191.77
2022-09-26T01:44:38.678Z,97192.55
2022-09-26T01:47:38.863Z,97198.53
2022-09-26T01:50:23.878Z,97196.05
2022-09-26T01:53:06.561Z,97187.55
2022-09-26T01:55:59.630Z,97178.04
2022-09-26T01:58:38.249Z,97175.54
2022-09-26T02:01:10.822Z,97167.85
2022-09-26T02:03:53.932Z,97172.08
2022-09-26T02:06:28.694Z,97168.39
2022-09-26T02:09:09.452Z,97167.65
2022-09-26T02:11:41.778Z,97159.33
2022-09-26T02:14:34.639Z,97154.07
2022-09-26T02:17:17.169Z,97152.64
2022-09-26T02:20:07.007Z,97158.64
2022-09-26T02:22:35.453Z,97164.05
2022-09-26T02:25:04.933Z,97164.58
2022-09-26T02:27:34.699Z,97159.64
2022-09-26T02:30:05.969Z,97160.95
2022-09-26T02:32:34.822Z,97162.06
2022-09-26T02:35:24.899Z,97162.70
2022-09-26T02:37:53.622Z,97155.44
2022-09-26T02:40:34.213Z,97153.27
2022-09-26T02:43:25.274Z,97157.58
2022-09-26T02:46:27.719Z,97156.31
2022-09-26T02:49:24.992Z,97151.19
2022-09-26T02:52:02.170Z,97147.55
2022-09-26T02:54:56.910Z,97140.85
2022-09-26T02:57:40.422Z,97136.85
2022-09-26T03:00:09.449Z,97136.07
2022-09-26T03:02:49.241Z,97141.35
2022-09-26T03:05:22.221Z,97146.30
2022-09-26T03:07:54.400Z,97141.86
2022-09-26T03:10:24.437Z,97132.31
2022-09-26T03:12:54.423Z,97126.86
2022-09-26T03:15:24.365Z,97127.77
2022-09-26T03:17:55.461Z,97126.91
2022-09-26T03:20:25.007Z,97124.69
2022-09-26T03:22:53.723Z,97113.83
2022-09-26T03:25:26.127Z,97112.94
2022-09-26T03:28:02.415Z,97116.95
2022-09-26T03:30:30.600Z,97110.27
2022-09-26T03:33:18.604Z,97104.81
2022-09-26T03:35:47.468Z,97101.62
2022-09-26T03:38:16.031Z,97092.89
2022-09-26T03:40:49.936Z,97090.17
2022-09-26T03:43:36.879Z,97088.73
2022-09-26T03:46:07.348Z,97087.92
2022-09-26T03:48:35.556Z,97083.77
2022-09-26T03:51:13.552Z,97071.46
2022-09-26T03:53:43.919Z,97062.55
2022-09-26T03:56:18.314Z,97057.33
2022-09-26T03:58:47.407Z,97058.66
2022-09-26T04:01:19.314Z,97061.09
2022-09-26T04:03:50.762Z,97064.98
2022-09-26T04:06:21.210Z,97066.63
2022-09-26T04:08:52.596Z,97073.16
2022-09-26T04:11:24.845Z,97074.63
2022-09-26T04:13:54.224Z,97068.94
2022-09-26T04:16:29.745Z,97069.52
2022-09-26T04:19:03.906Z,97075.89
2022-09-26T04:21:35.631Z,97072.75
2022-09-26T04:24:03.779Z,97068.29
2022-09-26T04:26:32.300Z,97065.65
2022-09-26T04:29:00.476Z,97064.14
2022-09-26T04:31:48.711Z,97059.94
2022-09-26T04:34:23.501Z,97052.92
2022-09-26T04:36:54.708Z,97047.37
2022-09-26T04:39:23.418Z,97046.84
2022-09-26T04:41:52.511Z,97045.97
2022-09-26T04:44:20.598Z,97047.33
2022-09-26T04:46:48.922Z,97048.99
2022-09-26T04:49:17.425Z,97050.98
2022-09-26T04:51:45.641Z,97043.62
2022-09-26T04:54:14.349Z,97033.96
2022-09-26T04:56:43.772Z,97033.11
2022-09-26T04:59:11.754Z,97036.79
2022-09-26T05:01:48.185Z,97041.88
2022-09-26T05:04:27.499Z,97041.54
2022-09-26T05:06:58.011Z,97035.98
2022-09-26T05:09:34.153Z,97028.17
2022-09-26T05:12:08.858Z,97023.61
2022-09-26T05:14:37.804Z,97021.95
2022-09-26T05:17:06.265Z,97015.50
2022-09-26T05:19:34.865Z,97012.23
2022-09-26T05:22:20.316Z,97011.97
2022-09-26T05:25:07.442Z,97011.88
2022-09-26T05:27:36.946Z,97008.73
2022-09-26T05:30:05.351Z,97009.11
2022-09-26T05:32:34.431Z,97008.27
2022-09-26T05:35:05.462Z,97005.30
2022-09-26T05:37:34.303Z,96991.08
2022-09-26T05:40:32.686Z,96990.28
2022-09-26T05:43:02.640Z,96991.38
2022-09-26T05:45:33.656Z,96993.44
2022-09-26T05:48:04.177Z,96996.73
2022-09-26T05:50:33.615Z,96994.95
2022-09-26T05:53:02.917Z,96985.85
2022-09-26T05:55:31.312Z,96982.15
2022-09-26T05:58:06.380Z,96983.52
2022-09-26T06:00:52.545Z,96988.42
2022-09-26T06:03:22.929Z,96991.28
2022-09-26T06:06:09.087Z,96991.34
2022-09-26T06:08:39.119Z,96994.55
2022-09-26T06:11:33.411Z,96990.20
2022-09-26T06:14:02.578Z,96979.73
2022-09-26T06:16:31.580Z,96974.52
2022-09-26T06:19:02.780Z,96970.21
2022-09-26T06:21:31.590Z,96968.27
2022-09-26T06:24:06.456Z,96963.58
2022-09-26T06:26:36.211Z,96965.11
2022-09-26T06:29:07.577Z,96968.10
2022-09-26T06:31:37.547Z,96967.46
2022-09-26T06:34:14.904Z,96963.09
2022-09-26T06:37:01.601Z,96958.13
2022-09-26T06:39:35.916Z,96952.52
2022-09-26T06:42:07.744Z,96957.45
2022-09-26T06:44:38.801Z,96961.36
2022-09-26T06:47:33.922Z,96964.64
2022-09-26T06:50:25.034Z,96968.33
2022-09-26T06:52:56.680Z,96972.55
2022-09-26T06:55:26.462Z,96969.50
2022-09-26T06:57:54.579Z,96959.98
2022-09-26T07:00:29.898Z,96953.38
2022-09-26T07:03:06.257Z,96947.09
2022-09-26T07:05:57.407Z,96947.90
2022-09-26T07:08:50.152Z,96947.50
2022-09-26T07:14:05.619Z,96946.67
2022-09-26T07:16:34.107Z,96943.98
2022-09-26T07:19:23.242Z,96941.15
2022-09-26T07:21:58.089Z,96937.54
2022-09-26T07:24:29.260Z,96937.92
2022-09-26T07:26:58.082Z,96943.28
2022-09-26T07:29:27.906Z,96940.30
2022-09-26T07:31:56.164Z,96938.74
2022-09-26T07:34:38.599Z,96941.18
2022-09-26T07:37:07.902Z,96940.15
2022-09-26T07:39:36.462Z,96936.24
2022-09-26T07:42:04.766Z,96925.89
2022-09-26T07:47:40.857Z,96909.23
2022-09-26T07:50:27.492Z,96907.83
2022-09-26T07:52:59.137Z,96905.98
2022-09-26T07:55:28.349Z,96901.88
2022-09-26T07:58:11.686Z,96899.47
2022-09-26T08:01:12.238Z,96894.37
2022-09-26T08:04:11.879Z,96890.28
2022-09-26T08:06:41.870Z,96892.02
2022-09-26T08:09:10.236Z,96894.03
2022-09-26T08:11:56.931Z,96890.13
2022-09-26T08:14:48.651Z,96882.45
2022-09-26T08:17:22.208Z,96877.65
2022-09-26T08:19:50.949Z,96874.50
2022-09-26T08:22:20.248Z,96879.84
2022-09-26T08:24:51.767Z,96876.80
2022-09-26T08:27:32.794Z,96870.42
2022-09-26T08:30:03.533Z,96862.89
2022-09-26T08:32:33.963Z,96864.55
2022-09-26T08:35:02.376Z,96858.40
2022-09-26T08:37:33.664Z,96851.79
2022-09-26T08:40:27.708Z,96858.38
2022-09-26T08:43:53.239Z,96849.59
2022-09-26T08:47:00.369Z,96843.99
2022-09-26T08:50:16.225Z,96840.91
2022-09-26T08:52:47.784Z,96839.73
2022-09-26T08:55:23.379Z,96846.31
2022-09-26T08:58:10.410Z,96841.63
2022-09-26T09:00:39.470Z,96834.48
2022-09-26T09:03:36.298Z,96829.14
2022-09-26T09:06:11.581Z,96828.70
2022-09-26T09:08:46.614Z,96827.02
2022-09-26T09:11:53.649Z,96820.00
2022-09-26T09:15:24.104Z,96816.94
2022-09-26T09:18:30.649Z,96812.16
2022-09-26T09:22:12.614Z,96811.95
2022-09-26T09:25:31.232Z,96809.80
2022-09-26T09:28:20.741Z,96811.19
2022-09-26T09:31:01.445Z,96800.85
2022-09-26T09:33:44.663Z,96794.61
2022-09-26T09:36:44.951Z,96790.41
2022-09-26T09:39:30.240Z,96781.81
2022-09-26T09:42:27.616Z,96783.80
2022-09-26T09:45:12.944Z,96782.39
2022-09-26T09:47:41.113Z,96773.19
2022-09-26T09:50:26.734Z,96774.74
2022-09-26T09:53:13.715Z,96779.54
2022-09-26T09:56:14.879Z,96784.70
2022-09-26T09:58:43.165Z,96795.25
2022-09-26T10:01:39.342Z,96793.83
2022-09-26T10:04:44.042Z,96786.92
2022-09-26T10:07:13.135Z,96775.26
2022-09-26T10:09:44.472Z,96768.59
2022-09-26T10:12:30.868Z,96766.09
2022-09-26T10:15:27.700Z,96769.09
2022-09-26T10:18:24.564Z,96773.53
2022-09-26T10:21:18.051Z,96770.29
2022-09-26T10:23:50.927Z,96775.44
2022-09-26T10:26:44.747Z,96782.45
2022-09-26T10:29:34.418Z,96786.63
2022-09-26T10:32:03.801Z,96794.65
2022-09-26T10:34:35.899Z,96796.19
2022-09-26T10:37:25.360Z,96791.69
2022-09-26T10:40:21.236Z,96787.27
2022-09-26T10:42:49.511Z,96792.35
2022-09-26T10:45:29.344Z,96804.89
2022-09-26T10:48:48.464Z,96830.63
2022-09-26T10:51:45.583Z,96835.58
2022-09-26T10:54:18.967Z,96844.95
2022-09-26T10:56:54.422Z,96850.83
2022-09-26T10:59:28.240Z,96861.63
2022-09-26T11:01:59.273Z,96858.42
2022-09-26T11:04:49.526Z,96853.77
2022-09-26T11:07:44.186Z,96853.52
2022-09-26T11:10:32.793Z,96869.27
2022-09-26T11:13:20.816Z,96881.54
2022-09-26T11:16:09.103Z,96893.42
2022-09-26T11:18:52.439Z,96894.41
2022-09-26T11:21:34.451Z,96888.77
2022-09-26T11:24:48.083Z,96885.99
2022-09-26T11:27:51.459Z,96883.73
2022-09-26T11:30:28.021Z,96885.89
2022-09-26T11:33:05.565Z,96894.51
2022-09-26T11:35:58.508Z,96901.77
2022-09-26T11:38:39.504Z,96916.38
2022-09-26T11:41:08.258Z,96932.41
2022-09-26T11:44:02.390Z,96939.29
2022-09-26T11:47:18.027Z,96922.81
2022-09-26T11:50:20.524Z,96907.77
2022-09-26T11:53:07.368Z,96897.06
2022-09-26T11:56:06.737Z,96891.80
2022-09-26T11:58:43.684Z,96885.38
2022-09-26T12:01:38.401Z,96881.27
2022-09-26T12:04:13.139Z,96868.98
2022-09-26T12:07:02.663Z,96860.64
2022-09-26T12:09:36.902Z,96855.21
2022-09-26T12:12:05.675Z,96853.23
2022-09-26T12:15:02.509Z,96855.03
2022-09-26T12:17:59.864Z,96855.77
2022-09-26T12:20:34.287Z,96861.32
2022-09-26T12:23:21.433Z,96863.27
2022-09-26T12:26:30.276Z,96861.17
2022-09-26T12:29:17.055Z,96854.39
2022-09-26T12:32:16.799Z,96858.19
2022-09-26T12:35:01.164Z,96853.10
2022-09-26T12:37:46.467Z,96849.45
2022-09-26T12:40:39.717Z,96845.14
2022-09-26T12:43:26.313Z,96843.06
2022-09-26T12:46:12.936Z,96833.27
2022-09-26T12:49:26.737Z,96824.84
2022-09-26T12:52:06.976Z,96814.71
2022-09-26T12:55:14.373Z,96813.55
2022-09-26T12:57:57.312Z,96812.48
2022-09-26T13:00:27.431Z,96812.61
2022-09-26T13:02:58.690Z,96808.73
2022-09-26T13:05:57.572Z,96790.63
2022-09-26T13:09:03.261Z,96777.75
2022-09-26T13:11:49.460Z,96775.83
2022-09-26T13:14:27.442Z,96784.48
2022-09-26T13:17:06.090Z,96789.29
2022-09-26T13:19:44.065Z,96792.85
2022-09-26T13:22:32.976Z,96797.28
2022-09-26T13:25:19.031Z,96801.78
2022-09-26T13:27:58.160Z,96804.61
2022-09-26T13:30:35.340Z,96803.09
2022-09-26T13:33:26.748Z,96802.31
2022-09-26T13:35:59.878Z,96797.41
2022-09-26T13:38:46.167Z,96795.96
2022-09-26T13:41:20.230Z,96795.08
2022-09-26T13:44:06.052Z,96798.17
2022-09-26T13:46:52.970Z,96792.64
2022-09-26T13:49:37.495Z,96786.67
2022-09-26T13:52:05.783Z,96786.86
2022-09-26T13:54:45.544Z,96786.36
2022-09-26T13:57:46.151Z,96783.09
2022-09-26T14:00:30.479Z,96771.64
2022-09-26T14:03:15.811Z,96763.46
2022-09-26T14:05:50.089Z,96760.75
2022-09-26T14:08:42.931Z,96761.14
2022-09-26T14:11:42.710Z,96760.16
2022-09-26T14:14:17.996Z,96759.03
2022-09-26T14:16:46.881Z,96758.38
2022-09-26T14:19:39.492Z,96757.58
2022-09-26T14:22:20.878Z,96759.02
2022-09-26T14:24:49.797Z,96760.23
2022-09-26T14:27:17.982Z,96755.77
2022-09-26T14:29:49.449Z,96757.27
2022-09-26T14:32:19.200Z,96760.08
2022-09-26T14:34:50.479Z,96755.13
2022-09-26T14:37:24.723Z,96758.31
2022-09-26T14:40:08.293Z,96752.59
2022-09-26T14:42:42.480Z,96750.58
2022-09-26T14:45:16.817Z,96747.82
2022-09-26T14:47:53.366Z,96738.00
2022-09-26T14:50:28.091Z,96734.65
2022-09-26T14:53:02.247Z,96734.38
2022-09-26T14:55:31.654Z,96732.52
2022-09-26T14:58:49.942Z,96731.30
2022-09-26T15:01:45.338Z,96725.58
2022-09-26T15:04:16.677Z,96727.08
2022-09-26T15:06:49.194Z,96726.05
2022-09-26T15:09:26.389Z,96722.77
2022-09-26T15:12:01.377Z,96722.23
2022-09-26T15:14:45.571Z,96722.08
2022-09-26T15:17:25.991Z,96720.81
2022-09-26T15:19:57.637Z,96720.40
2022-09-26T15:22:29.242Z,96719.98
2022-09-26T15:25:19.411Z,96718.17
2022-09-26T15:27:54.058Z,96722.88
2022-09-26T15:30:32.530Z,96719.38
2022-09-26T15:33:05.855Z,96718.05
2022-09-26T15:35:34.181Z,96719.86
2022-09-26T15:38:09.979Z,96723.25
2022-09-26T15:40:38.328Z,96722.75
2022-09-26T15:43:09.819Z,96720.23
2022-09-26T15:45:47.902Z,96718.91
2022-09-26T15:48:20.676Z,96713.93
2022-09-26T15:50:52.220Z,96707.44
2022-09-26T15:53:26.589Z,96706.45
2022-09-26T15:56:18.585Z,96716.44
2022-09-26T15:58:53.907Z,96723.54
2022-09-26T16:01:25.843Z,96728.14
2022-09-26T16:03:55.231Z,96734.83
2022-09-26T16:06:50.799Z,96734.66
2022-09-26T16:09:21.748Z,96738.27
2022-09-26T16:11:59.186Z,96741.68
2022-09-26T16:14:51.018Z,96744.26
2022-09-26T16:17:36.420Z,96747.38
2022-09-26T16:20:24.663Z,96751.13
2022-09-26T16:23:04.162Z,96755.67
2022-09-26T16:25:54.851Z,96756.33
2022-09-26T16:28:42.753Z,96756.29
2022-09-26T16:31:23.481Z,96747.98
2022-09-26T16:33:53.860Z,96746.45
2022-09-26T16:36:31.062Z,96739.27
2022-09-26T16:39:04.234Z,96748.63
2022-09-26T16:42:00.229Z,96753.55
2022-09-26T16:44:36.364Z,96751.81
2022-09-26T16:47:29.659Z,96745.63
2022-09-26T16:50:31.324Z,96753.71
2022-09-26T16:53:07.014Z,96759.15
2022-09-26T16:55:37.629Z,96765.70
2022-09-26T16:58:06.268Z,96774.41
2022-09-26T17:00:53.510Z,96773.28
2022-09-26T17:03:32.580Z,96763.20
2022-09-26T17:06:00.742Z,96753.88
2022-09-26T17:08:29.718Z,96753.15
2022-09-26T17:11:02.038Z,96754.16
2022-09-26T17:13:35.307Z,96755.69
2022-09-26T17:16:03.863Z,96753.61
2022-09-26T17:18:33.961Z,96743.77
2022-09-26T17:21:03.132Z,96748.01
2022-09-26T17:23:40.415Z,96748.64
2022-09-26T17:26:20.029Z,96747.29
2022-09-26T17:28:49.490Z,96744.55
2022-09-26T17:31:21.747Z,96740.39
2022-09-26T17:33:53.537Z,96741.31
2022-09-26T17:36:24.938Z,96741.64
2022-09-26T17:38:54.880Z,96744.79
2022-09-26T17:41:25.532Z,96743.23
2022-09-26T17:43:59.154Z,96742.05
2022-09-26T17:46:28.170Z,96744.52
2022-09-26T17:48:56.539Z,96747.11
2022-09-26T17:51:25.404Z,96744.65
2022-09-26T17:53:57.601Z,96746.75
2022-09-26T17:56:26.672Z,96743.41
2022-09-26T17:58:57.141Z,96742.69
2022-09-26T18:01:33.677Z,96741.90
2022-09-26T18:04:12.647Z,96733.33
2022-09-26T18:06:42.976Z,96739.58
2022-09-26T18:09:15.833Z,96741.05
2022-09-26T18:11:50.060Z,96736.48
2022-09-26T18:14:18.557Z,96725.36
2022-09-26T18:16:46.710Z,96721.38
2022-09-26T18:19:14.664Z,96715.08
2022-09-26T18:21:42.796Z,96710.69
2022-09-26T18:24:19.392Z,96712.23
2022-09-26T18:26:51.040Z,96707.22
2022-09-26T18:29:44.711Z,96698.51
2022-09-26T18:32:31.965Z,96691.81
2022-09-26T18:35:01.115Z,96686.06
2022-09-26T18:37:29.396Z,96681.54
2022-09-26T18:40:02.934Z,96676.98
2022-09-26T18:42:33.129Z,96677.94
2022-09-26T18:45:07.992Z,96674.30
2022-09-26T18:47:42.629Z,96672.94
2022-09-26T18:50:34.486Z,96671.26
2022-09-26T18:53:23.485Z,96669.30
2022-09-26T18:56:10.570Z,96670.60
2022-09-26T18:58:39.378Z,96672.64
2022-09-26T19:01:23.561Z,96676.83
2022-09-26T19:03:52.125Z,96675.14
2022-09-26T19:06:28.915Z,96668.20
2022-09-26T19:09:11.560Z,96664.63
2022-09-26T19:11:39.885Z,96667.02
2022-09-26T19:14:21.196Z,96675.39
2022-09-26T19:16:50.858Z,96682.16
2022-09-26T19:19:19.800Z,96679.52
2022-09-26T19:21:51.652Z,96680.89
2022-09-26T19:24:34.639Z,96682.33
2022-09-26T19:27:11.780Z,96693.86
2022-09-26T19:29:54.912Z,96696.89
2022-09-26T19:32:28.821Z,96698.66
2022-09-26T19:35:00.723Z,96687.73
2022-09-26T19:37:29.573Z,96673.02
2022-09-26T19:39:58.396Z,96676.14
2022-09-26T19:42:27.059Z,96680.60
2022-09-26T19:44:56.544Z,96689.39
2022-09-26T19:47:24.759Z,96696.61
2022-09-26T19:49:53.252Z,96695.42
2022-09-26T19:52:23.021Z,96690.70
2022-09-26T19:54:51.115Z,96692.36
2022-09-26T19:57:22.086Z,96697.65
2022-09-26T19:59:50.923Z,96705.06
2022-09-26T20:02:31.403Z,96703.25
2022-09-26T20:04:59.444Z,96699.05
2022-09-26T20:07:27.960Z,96699.14
2022-09-26T20:09:56.767Z,96704.23
2022-09-26T20:12:24.697Z,96709.52
2022-09-26T20:14:52.623Z,96711.34
2022-09-26T20:17:25.245Z,96709.02
2022-09-26T20:19:58.585Z,96704.11
2022-09-26T20:22:27.150Z,96705.51
2022-09-26T20:24:55.886Z,96707.91
2022-09-26T20:27:28.198Z,96712.38
2022-09-26T20:30:15.126Z,96716.08
2022-09-26T20:32:43.456Z,96712.52
2022-09-26T20:35:14.674Z,96708.95
2022-09-26T20:37:44.293Z,96711.11
2022-09-26T20:40:19.559Z,96706.38
2022-09-26T20:42:50.950Z,96703.86
2022-09-26T20:45:30.550Z,96705.83
2022-09-26T20:47:59.817Z,96704.73
2022-09-26T20:50:34.232Z,96704.16
2022-09-26T20:53:02.710Z,96702.46
2022-09-26T20:55:32.540Z,96700.92
2022-09-26T20:58:00.591Z,96702.44
2022-09-26T21:00:29.050Z,96702.64
2022-09-26T21:02:57.367Z,96704.63
2022-09-26T21:05:27.619Z,96707.89
2022-09-26T21:07:57.851Z,96710.01
2022-09-26T21:10:32.387Z,96712.33
2022-09-26T21:13:01.390Z,96718.95
2022-09-26T21:15:32.458Z,96714.59
2022-09-26T21:18:02.268Z,96713.89
2022-09-26T21:20:34.093Z,96714.45
2022-09-26T21:23:05.641Z,96712.29
2022-09-26T21:25:34.345Z,96712.45
2022-09-26T21:28:11.565Z,96713.64
2022-09-26T21:30:39.832Z,96718.98
2022-09-26T21:33:13.555Z,96725.30
2022-09-26T21:35:42.881Z,96725.44
2022-09-26T21:38:11.054Z,96725.55
2022-09-26T21:40:45.553Z,96723.61
2022-09-26T21:43:17.264Z,96720.93
2022-09-26T21:45:46.603Z,96719.12
2022-09-26T21:48:15.788Z,96715.25
2022-09-26T21:50:51.914Z,96714.05
2022-09-26T21:53:29.294Z,96702.55
2022-09-26T21:56:06.475Z,96696.72
2022-09-26T21:58:40.397Z,96695.87
2022-09-26T22:01:09.995Z,96696.35
2022-09-26T22:03:38.027Z,96691.79
2022-09-26T22:06:09.439Z,96692.09
2022-09-26T22:08:39.540Z,96692.05
2022-09-26T22:11:09.114Z,96689.04
2022-09-26T22:13:37.721Z,96687.81
2022-09-26T22:16:07.812Z,96687.17
2022-09-26T22:18:39.108Z,96681.12
2022-09-26T22:21:09.405Z,96681.18
2022-09-26T22:23:37.876Z,96676.55
2022-09-26T22:26:07.163Z,96668.81
2022-09-26T22:28:35.790Z,96665.98
2022-09-26T22:31:05.326Z,96663.71
2022-09-26T22:33:34.334Z,96657.85
2022-09-26T22:36:03.120Z,96658.06
2022-09-26T22:38:33.142Z,96650.46
2022-09-26T22:41:03.694Z,96642.73
2022-09-26T22:43:32.799Z,96632.13
2022-09-26T22:46:06.546Z,96624.23
2022-09-26T22:48:36.572Z,96613.20
2022-09-26T22:51:05.838Z,96615.09
2022-09-26T22:53:36.782Z,96617.11
2022-09-26T22:56:06.770Z,96613.41
2022-09-26T22:58:38.490Z,96608.86
2022-09-26T23:01:09.645Z,96603.52
2022-09-26T23:03:38.494Z,96599.65
2022-09-26T23:06:07.666Z,96595.05
2022-09-26T23:08:36.800Z,96590.11
2022-09-26T23:11:06.771Z,96584.01
2022-09-26T23:13:35.704Z,96572.65
2022-09-26T23:16:09.894Z,96571.80
2022-09-26T23:18:39.970Z,96563.39
2022-09-26T23:21:15.173Z,96552.48
2022-09-26T23:23:58.589Z,96545.27
2022-09-26T23:26:30.088Z,96538.21
2022-09-26T23:28:59.297Z,96540.32
2022-09-26T23:31:29.147Z,96544.80
2022-09-26T23:33:57.738Z,96547.09
2022-09-26T23:36:26.163Z,96554.76
2022-09-26T23:38:56.842Z,96557.06
2022-09-26T23:41:24.920Z,96556.89
2022-09-26T23:43:52.822Z,96550.11
2022-09-26T23:46:21.049Z,96550.09
2022-09-26T23:48:49.512Z,96552.76
2022-09-26T23:51:17.457Z,96554.03
2022-09-26T23:53:46.213Z,96556.21
2022-09-26T23:56:14.794Z,96551.83
2022-09-26T23:58:43.776Z,96548.14
